sensor_id;sensor_type;location;lat;lon;timestamp;pressure;altitude;pressure_sealevel;temperature;humidity
73624;BME280;61921;53.226;-1.296;2022-07-23T00:01:24;100829.20;;;17.10;66.82
73624;BME280;61921;53.226;-1.296;2022-07-23T00:03:49;100826.21;;;17.17;66.51
73624;BME280;61921;53.226;-1.296;2022-07-23T00:06:13;100823.92;;;16.95;67.92
73624;BME280;61921;53.226;-1.296;2022-07-23T00:08:39;100827.35;;;17.25;67.88
73624;BME280;61921;53.226;-1.296;2022-07-23T00:11:04;100824.77;;;17.29;66.75
73624;BME280;61921;53.226;-1.296;2022-07-23T00:13:29;100822.28;;;17.35;66.64
73624;BME280;61921;53.226;-1.296;2022-07-23T00:15:54;100820.11;;;17.42;65.58
73624;BME280;61921;53.226;-1.296;2022-07-23T00:18:20;100817.96;;;17.55;65.72
73624;BME280;61921;53.226;-1.296;2022-07-23T00:20:45;100816.20;;;17.47;66.52
73624;BME280;61921;53.226;-1.296;2022-07-23T00:23:10;100812.90;;;17.48;66.49
73624;BME280;61921;53.226;-1.296;2022-07-23T00:25:35;100813.49;;;17.15;67.39
73624;BME280;61921;53.226;-1.296;2022-07-23T00:28:01;100812.19;;;17.20;67.35
73624;BME280;61921;53.226;-1.296;2022-07-23T00:30:26;100808.52;;;17.26;67.36
73624;BME280;61921;53.226;-1.296;2022-07-23T00:32:53;100805.25;;;17.29;67.78
73624;BME280;61921;53.226;-1.296;2022-07-23T00:35:19;100803.92;;;17.30;67.66
73624;BME280;61921;53.226;-1.296;2022-07-23T00:37:42;100802.30;;;17.19;67.97
73624;BME280;61921;53.226;-1.296;2022-07-23T00:40:09;100800.41;;;16.82;68.62
73624;BME280;61921;53.226;-1.296;2022-07-23T00:42:33;100798.46;;;16.40;70.28
73624;BME280;61921;53.226;-1.296;2022-07-23T00:44:58;100798.14;;;16.46;70.06
73624;BME280;61921;53.226;-1.296;2022-07-23T00:47:23;100789.49;;;16.30;70.42
73624;BME280;61921;53.226;-1.296;2022-07-23T00:49:49;100793.80;;;15.94;72.18
73624;BME280;61921;53.226;-1.296;2022-07-23T00:52:14;100789.29;;;16.02;71.83
73624;BME280;61921;53.226;-1.296;2022-07-23T00:54:39;100791.40;;;15.86;72.55
73624;BME280;61921;53.226;-1.296;2022-07-23T00:57:04;100791.23;;;15.96;72.22
73624;BME280;61921;53.226;-1.296;2022-07-23T00:59:30;100785.19;;;16.16;71.54
73624;BME280;61921;53.226;-1.296;2022-07-23T01:01:55;100784.32;;;16.38;70.93
73624;BME280;61921;53.226;-1.296;2022-07-23T01:04:20;100784.27;;;16.68;71.06
73624;BME280;61921;53.226;-1.296;2022-07-23T01:06:45;100784.62;;;16.85;70.48
73624;BME280;61921;53.226;-1.296;2022-07-23T01:09:11;100784.61;;;16.97;70.12
73624;BME280;61921;53.226;-1.296;2022-07-23T01:11:37;100779.51;;;17.15;68.89
73624;BME280;61921;53.226;-1.296;2022-07-23T01:14:08;100777.41;;;17.30;68.24
73624;BME280;61921;53.226;-1.296;2022-07-23T01:16:27;100779.65;;;17.43;67.56
73624;BME280;61921;53.226;-1.296;2022-07-23T01:18:52;100774.17;;;17.47;66.97
73624;BME280;61921;53.226;-1.296;2022-07-23T01:21:18;100776.02;;;17.57;67.17
73624;BME280;61921;53.226;-1.296;2022-07-23T01:23:42;100773.56;;;17.64;66.75
73624;BME280;61921;53.226;-1.296;2022-07-23T01:26:07;100773.85;;;17.66;67.03
73624;BME280;61921;53.226;-1.296;2022-07-23T01:28:33;100770.16;;;17.50;67.26
73624;BME280;61921;53.226;-1.296;2022-07-23T01:30:58;100766.30;;;17.57;67.66
73624;BME280;61921;53.226;-1.296;2022-07-23T01:33:23;100764.44;;;17.47;68.40
73624;BME280;61921;53.226;-1.296;2022-07-23T01:35:48;100766.28;;;16.93;70.19
73624;BME280;61921;53.226;-1.296;2022-07-23T01:38:14;100761.39;;;16.67;71.19
73624;BME280;61921;53.226;-1.296;2022-07-23T01:40:39;100762.00;;;16.98;70.10
73624;BME280;61921;53.226;-1.296;2022-07-23T01:43:04;100761.70;;;17.04;70.26
73624;BME280;61921;53.226;-1.296;2022-07-23T01:45:31;100758.73;;;17.04;69.19
73624;BME280;61921;53.226;-1.296;2022-07-23T01:47:55;100758.77;;;16.91;69.79
73624;BME280;61921;53.226;-1.296;2022-07-23T01:50:20;100758.14;;;16.52;71.15
73624;BME280;61921;53.226;-1.296;2022-07-23T01:52:45;100760.43;;;16.13;72.86
73624;BME280;61921;53.226;-1.296;2022-07-23T01:55:11;100764.77;;;16.27;72.23
73624;BME280;61921;53.226;-1.296;2022-07-23T01:57:36;100766.58;;;16.39;72.31
73624;BME280;61921;53.226;-1.296;2022-07-23T02:00:02;100765.50;;;16.56;72.33
73624;BME280;61921;53.226;-1.296;2022-07-23T02:02:27;100766.02;;;16.80;71.64
73624;BME280;61921;53.226;-1.296;2022-07-23T02:04:52;100762.48;;;16.85;71.43
73624;BME280;61921;53.226;-1.296;2022-07-23T02:07:17;100761.70;;;16.79;71.69
73624;BME280;61921;53.226;-1.296;2022-07-23T02:09:43;100760.42;;;16.70;72.06
73624;BME280;61921;53.226;-1.296;2022-07-23T02:12:08;100763.46;;;16.69;72.09
73624;BME280;61921;53.226;-1.296;2022-07-23T02:14:33;100759.55;;;16.73;71.80
73624;BME280;61921;53.226;-1.296;2022-07-23T02:16:59;100761.57;;;16.84;71.27
73624;BME280;61921;53.226;-1.296;2022-07-23T02:19:24;100763.13;;;16.90;71.33
73624;BME280;61921;53.226;-1.296;2022-07-23T02:21:49;100763.89;;;17.03;71.00
73624;BME280;61921;53.226;-1.296;2022-07-23T02:24:14;100761.34;;;16.90;71.00
73624;BME280;61921;53.226;-1.296;2022-07-23T02:26:40;100761.27;;;17.02;70.35
73624;BME280;61921;53.226;-1.296;2022-07-23T02:29:05;100757.95;;;16.98;70.54
73624;BME280;61921;53.226;-1.296;2022-07-23T02:31:31;100755.01;;;16.78;70.78
73624;BME280;61921;53.226;-1.296;2022-07-23T02:33:55;100753.88;;;16.66;70.79
73624;BME280;61921;53.226;-1.296;2022-07-23T02:36:21;100752.60;;;16.47;71.63
73624;BME280;61921;53.226;-1.296;2022-07-23T02:38:46;100750.70;;;16.63;70.79
73624;BME280;61921;53.226;-1.296;2022-07-23T02:41:12;100753.92;;;16.53;71.33
73624;BME280;61921;53.226;-1.296;2022-07-23T02:43:37;100755.23;;;16.30;72.72
73624;BME280;61921;53.226;-1.296;2022-07-23T02:46:02;100761.52;;;16.16;73.83
73624;BME280;61921;53.226;-1.296;2022-07-23T02:48:27;100764.68;;;16.42;73.20
73624;BME280;61921;53.226;-1.296;2022-07-23T02:50:52;100770.08;;;16.61;72.53
73624;BME280;61921;53.226;-1.296;2022-07-23T02:53:18;100772.71;;;16.81;72.03
73624;BME280;61921;53.226;-1.296;2022-07-23T02:55:43;100772.05;;;16.98;71.68
73624;BME280;61921;53.226;-1.296;2022-07-23T02:58:09;100767.16;;;17.11;71.14
73624;BME280;61921;53.226;-1.296;2022-07-23T03:00:33;100768.63;;;16.98;70.89
73624;BME280;61921;53.226;-1.296;2022-07-23T03:02:59;100768.21;;;17.06;70.18
73624;BME280;61921;53.226;-1.296;2022-07-23T03:05:24;100765.23;;;16.91;70.71
73624;BME280;61921;53.226;-1.296;2022-07-23T03:07:50;100764.23;;;16.81;71.08
73624;BME280;61921;53.226;-1.296;2022-07-23T03:10:15;100762.23;;;16.69;71.17
73624;BME280;61921;53.226;-1.296;2022-07-23T03:12:40;100759.61;;;16.51;71.68
73624;BME280;61921;53.226;-1.296;2022-07-23T03:15:07;100764.08;;;16.68;71.36
73624;BME280;61921;53.226;-1.296;2022-07-23T03:17:31;100764.33;;;16.85;71.31
73624;BME280;61921;53.226;-1.296;2022-07-23T03:19:56;100755.82;;;16.97;71.34
73624;BME280;61921;53.226;-1.296;2022-07-23T03:22:21;100759.15;;;17.01;70.83
73624;BME280;61921;53.226;-1.296;2022-07-23T03:24:47;100761.78;;;16.90;71.08
73624;BME280;61921;53.226;-1.296;2022-07-23T03:27:12;100768.85;;;16.82;71.20
73624;BME280;61921;53.226;-1.296;2022-07-23T03:29:37;100770.67;;;16.76;71.43
73624;BME280;61921;53.226;-1.296;2022-07-23T03:32:02;100765.49;;;16.71;71.69
73624;BME280;61921;53.226;-1.296;2022-07-23T03:34:28;100765.58;;;16.69;71.73
73624;BME280;61921;53.226;-1.296;2022-07-23T03:36:53;100762.43;;;16.64;71.80
73624;BME280;61921;53.226;-1.296;2022-07-23T03:39:18;100758.54;;;16.49;72.29
73624;BME280;61921;53.226;-1.296;2022-07-23T03:41:44;100760.79;;;16.47;72.21
73624;BME280;61921;53.226;-1.296;2022-07-23T03:44:09;100756.61;;;16.42;72.13
73624;BME280;61921;53.226;-1.296;2022-07-23T03:46:34;100754.02;;;16.35;72.01
73624;BME280;61921;53.226;-1.296;2022-07-23T03:49:00;100748.02;;;16.32;72.11
73624;BME280;61921;53.226;-1.296;2022-07-23T03:51:25;100747.73;;;15.95;73.29
73624;BME280;61921;53.226;-1.296;2022-07-23T03:53:50;100750.49;;;15.63;74.44
73624;BME280;61921;53.226;-1.296;2022-07-23T03:56:16;100748.46;;;15.41;75.44
73624;BME280;61921;53.226;-1.296;2022-07-23T03:58:41;100753.54;;;15.13;76.00
73624;BME280;61921;53.226;-1.296;2022-07-23T04:01:06;100755.43;;;15.16;75.41
73624;BME280;61921;53.226;-1.296;2022-07-23T04:03:32;100752.35;;;14.98;76.77
73624;BME280;61921;53.226;-1.296;2022-07-23T04:05:57;100750.59;;;15.16;76.08
73624;BME280;61921;53.226;-1.296;2022-07-23T04:08:23;100754.30;;;15.05;75.97
73624;BME280;61921;53.226;-1.296;2022-07-23T04:10:47;100748.87;;;15.04;75.92
73624;BME280;61921;53.226;-1.296;2022-07-23T04:13:13;100739.30;;;15.02;76.13
73624;BME280;61921;53.226;-1.296;2022-07-23T04:15:38;100741.64;;;15.27;75.15
73624;BME280;61921;53.226;-1.296;2022-07-23T04:18:04;100745.67;;;15.25;74.78
73624;BME280;61921;53.226;-1.296;2022-07-23T04:20:29;100751.00;;;14.92;76.43
73624;BME280;61921;53.226;-1.296;2022-07-23T04:22:54;100754.76;;;14.67;77.23
73624;BME280;61921;53.226;-1.296;2022-07-23T04:25:20;100756.72;;;14.93;76.13
73624;BME280;61921;53.226;-1.296;2022-07-23T04:27:45;100757.18;;;15.12;75.40
73624;BME280;61921;53.226;-1.296;2022-07-23T04:30:11;100755.04;;;15.23;75.40
73624;BME280;61921;53.226;-1.296;2022-07-23T04:32:36;100752.83;;;15.33;75.11
73624;BME280;61921;53.226;-1.296;2022-07-23T04:35:01;100754.47;;;15.49;75.09
73624;BME280;61921;53.226;-1.296;2022-07-23T04:37:27;100751.06;;;15.57;74.62
73624;BME280;61921;53.226;-1.296;2022-07-23T04:39:52;100749.48;;;15.67;74.23
73624;BME280;61921;53.226;-1.296;2022-07-23T04:42:17;100748.60;;;15.75;74.00
73624;BME280;61921;53.226;-1.296;2022-07-23T04:44:42;100740.48;;;15.86;73.82
73624;BME280;61921;53.226;-1.296;2022-07-23T04:47:08;100735.58;;;15.95;73.43
73624;BME280;61921;53.226;-1.296;2022-07-23T04:49:33;100735.11;;;16.03;72.98
73624;BME280;61921;53.226;-1.296;2022-07-23T04:51:59;100732.83;;;16.14;73.04
73624;BME280;61921;53.226;-1.296;2022-07-23T04:54:24;100729.00;;;16.24;72.78
73624;BME280;61921;53.226;-1.296;2022-07-23T04:56:49;100731.78;;;16.32;72.25
73624;BME280;61921;53.226;-1.296;2022-07-23T04:59:14;100739.25;;;15.82;74.03
73624;BME280;61921;53.226;-1.296;2022-07-23T05:01:40;100741.27;;;15.87;74.19
73624;BME280;61921;53.226;-1.296;2022-07-23T05:04:05;100742.24;;;16.04;73.50
73624;BME280;61921;53.226;-1.296;2022-07-23T05:06:31;100741.74;;;16.12;72.63
73624;BME280;61921;53.226;-1.296;2022-07-23T05:08:56;100741.51;;;16.22;72.62
73624;BME280;61921;53.226;-1.296;2022-07-23T05:11:21;100744.14;;;16.29;72.56
73624;BME280;61921;53.226;-1.296;2022-07-23T05:13:47;100742.92;;;16.35;72.64
73624;BME280;61921;53.226;-1.296;2022-07-23T05:16:13;100749.95;;;16.47;72.62
73624;BME280;61921;53.226;-1.296;2022-07-23T05:18:38;100745.29;;;16.51;72.50
73624;BME280;61921;53.226;-1.296;2022-07-23T05:21:03;100749.44;;;16.59;72.12
73624;BME280;61921;53.226;-1.296;2022-07-23T05:23:28;100749.69;;;16.61;72.02
73624;BME280;61921;53.226;-1.296;2022-07-23T05:25:54;100744.00;;;16.23;73.73
73624;BME280;61921;53.226;-1.296;2022-07-23T05:28:19;100741.87;;;16.59;72.55
73624;BME280;61921;53.226;-1.296;2022-07-23T05:30:44;100741.39;;;16.68;72.19
73624;BME280;61921;53.226;-1.296;2022-07-23T05:33:10;100740.54;;;16.74;72.02
73624;BME280;61921;53.226;-1.296;2022-07-23T05:35:35;100738.23;;;16.84;71.74
73624;BME280;61921;53.226;-1.296;2022-07-23T05:38:01;100738.05;;;16.89;71.57
73624;BME280;61921;53.226;-1.296;2022-07-23T05:40:27;100739.32;;;16.91;71.73
73624;BME280;61921;53.226;-1.296;2022-07-23T05:42:52;100744.39;;;16.92;71.78
73624;BME280;61921;53.226;-1.296;2022-07-23T05:45:17;100745.47;;;16.91;71.73
73624;BME280;61921;53.226;-1.296;2022-07-23T05:47:45;100742.06;;;16.83;72.10
73624;BME280;61921;53.226;-1.296;2022-07-23T05:50:08;100741.60;;;16.88;71.77
73624;BME280;61921;53.226;-1.296;2022-07-23T05:52:33;100744.24;;;16.94;71.64
73624;BME280;61921;53.226;-1.296;2022-07-23T05:54:58;100751.51;;;16.88;71.12
73624;BME280;61921;53.226;-1.296;2022-07-23T05:57:24;100751.48;;;16.89;71.21
73624;BME280;61921;53.226;-1.296;2022-07-23T05:59:49;100752.37;;;16.90;70.72
73624;BME280;61921;53.226;-1.296;2022-07-23T06:02:15;100752.35;;;17.05;70.60
73624;BME280;61921;53.226;-1.296;2022-07-23T06:04:40;100752.44;;;17.09;69.82
73624;BME280;61921;53.226;-1.296;2022-07-23T06:07:05;100753.15;;;17.23;69.98
73624;BME280;61921;53.226;-1.296;2022-07-23T06:09:31;100751.75;;;17.39;69.73
73624;BME280;61921;53.226;-1.296;2022-07-23T06:11:55;100744.99;;;17.35;69.05
73624;BME280;61921;53.226;-1.296;2022-07-23T06:14:21;100740.74;;;17.52;68.20
73624;BME280;61921;53.226;-1.296;2022-07-23T06:16:46;100741.50;;;17.67;68.20
73624;BME280;61921;53.226;-1.296;2022-07-23T06:19:13;100735.28;;;17.76;67.91
73624;BME280;61921;53.226;-1.296;2022-07-23T06:21:37;100733.27;;;17.83;67.77
73624;BME280;61921;53.226;-1.296;2022-07-23T06:24:03;100728.39;;;17.87;67.85
73624;BME280;61921;53.226;-1.296;2022-07-23T06:26:28;100729.37;;;17.97;67.68
73624;BME280;61921;53.226;-1.296;2022-07-23T06:28:53;100734.32;;;17.88;68.26
73624;BME280;61921;53.226;-1.296;2022-07-23T06:31:18;100737.31;;;17.95;67.78
73624;BME280;61921;53.226;-1.296;2022-07-23T06:33:43;100741.16;;;18.09;67.53
73624;BME280;61921;53.226;-1.296;2022-07-23T06:36:09;100737.39;;;17.96;67.65
73624;BME280;61921;53.226;-1.296;2022-07-23T06:38:34;100739.87;;;18.11;66.77
73624;BME280;61921;53.226;-1.296;2022-07-23T06:40:59;100733.80;;;18.36;66.78
73624;BME280;61921;53.226;-1.296;2022-07-23T06:43:25;100734.40;;;18.40;66.89
73624;BME280;61921;53.226;-1.296;2022-07-23T06:45:50;100733.55;;;18.51;66.53
73624;BME280;61921;53.226;-1.296;2022-07-23T06:48:16;100735.02;;;18.54;66.83
73624;BME280;61921;53.226;-1.296;2022-07-23T06:50:42;100739.78;;;18.71;66.52
73624;BME280;61921;53.226;-1.296;2022-07-23T06:53:07;100740.41;;;18.75;66.07
73624;BME280;61921;53.226;-1.296;2022-07-23T06:55:33;100740.25;;;18.87;65.87
73624;BME280;61921;53.226;-1.296;2022-07-23T06:57:58;100739.15;;;18.86;66.19
73624;BME280;61921;53.226;-1.296;2022-07-23T07:00:23;100736.81;;;19.12;65.40
73624;BME280;61921;53.226;-1.296;2022-07-23T07:02:49;100730.68;;;19.08;65.69
73624;BME280;61921;53.226;-1.296;2022-07-23T07:05:15;100735.29;;;19.11;64.93
73624;BME280;61921;53.226;-1.296;2022-07-23T07:07:40;100740.08;;;19.17;65.18
73624;BME280;61921;53.226;-1.296;2022-07-23T07:10:07;100743.22;;;18.47;67.25
73624;BME280;61921;53.226;-1.296;2022-07-23T07:12:31;100744.28;;;18.27;68.32
73624;BME280;61921;53.226;-1.296;2022-07-23T07:14:56;100743.45;;;18.61;67.29
73624;BME280;61921;53.226;-1.296;2022-07-23T07:17:22;100742.43;;;19.00;66.33
73624;BME280;61921;53.226;-1.296;2022-07-23T07:19:47;100745.70;;;18.78;67.42
73624;BME280;61921;53.226;-1.296;2022-07-23T07:22:13;100748.00;;;19.05;67.01
73624;BME280;61921;53.226;-1.296;2022-07-23T07:24:38;100746.63;;;19.17;66.52
73624;BME280;61921;53.226;-1.296;2022-07-23T07:27:04;100744.40;;;18.97;67.23
73624;BME280;61921;53.226;-1.296;2022-07-23T07:29:28;100738.18;;;20.07;64.67
73624;BME280;61921;53.226;-1.296;2022-07-23T07:31:54;100733.18;;;21.20;60.97
73624;BME280;61921;53.226;-1.296;2022-07-23T07:34:19;100728.92;;;21.77;59.35
73624;BME280;61921;53.226;-1.296;2022-07-23T07:36:45;100732.08;;;21.84;58.62
73624;BME280;61921;53.226;-1.296;2022-07-23T07:39:10;100733.50;;;22.28;57.43
73624;BME280;61921;53.226;-1.296;2022-07-23T07:41:36;100733.11;;;23.23;55.47
73624;BME280;61921;53.226;-1.296;2022-07-23T07:44:02;100731.74;;;24.01;53.11
73624;BME280;61921;53.226;-1.296;2022-07-23T07:46:27;100732.06;;;23.18;54.84
73624;BME280;61921;53.226;-1.296;2022-07-23T07:48:52;100727.87;;;23.00;54.91
73624;BME280;61921;53.226;-1.296;2022-07-23T07:51:18;100723.53;;;23.07;55.34
73624;BME280;61921;53.226;-1.296;2022-07-23T07:53:43;100713.36;;;22.95;55.89
73624;BME280;61921;53.226;-1.296;2022-07-23T07:56:09;100716.42;;;22.82;56.08
73624;BME280;61921;53.226;-1.296;2022-07-23T07:58:34;100716.89;;;22.70;57.04
73624;BME280;61921;53.226;-1.296;2022-07-23T08:00:59;100716.96;;;22.69;56.85
73624;BME280;61921;53.226;-1.296;2022-07-23T08:03:25;100720.60;;;22.83;56.28
73624;BME280;61921;53.226;-1.296;2022-07-23T08:05:50;100720.67;;;22.91;56.29
73624;BME280;61921;53.226;-1.296;2022-07-23T08:08:16;100726.10;;;22.73;56.72
73624;BME280;61921;53.226;-1.296;2022-07-23T08:10:42;100725.00;;;21.71;59.70
73624;BME280;61921;53.226;-1.296;2022-07-23T08:13:07;100720.85;;;22.01;58.72
73624;BME280;61921;53.226;-1.296;2022-07-23T08:15:32;100719.63;;;21.80;59.62
73624;BME280;61921;53.226;-1.296;2022-07-23T08:17:58;100726.54;;;22.13;59.06
73624;BME280;61921;53.226;-1.296;2022-07-23T08:20:24;100724.75;;;22.54;58.75
73624;BME280;61921;53.226;-1.296;2022-07-23T08:22:50;100725.21;;;22.02;59.62
73624;BME280;61921;53.226;-1.296;2022-07-23T08:25:14;100724.27;;;22.17;59.51
73624;BME280;61921;53.226;-1.296;2022-07-23T08:27:39;100719.04;;;22.02;59.27
73624;BME280;61921;53.226;-1.296;2022-07-23T08:30:07;100713.58;;;22.30;58.83
73624;BME280;61921;53.226;-1.296;2022-07-23T08:34:56;100720.69;;;22.16;58.28
73624;BME280;61921;53.226;-1.296;2022-07-23T08:37:21;100721.07;;;22.25;58.33
73624;BME280;61921;53.226;-1.296;2022-07-23T08:39:47;100715.75;;;22.49;57.80
73624;BME280;61921;53.226;-1.296;2022-07-23T08:42:13;100720.90;;;21.93;58.79
73624;BME280;61921;53.226;-1.296;2022-07-23T08:44:40;100721.37;;;22.03;58.41
73624;BME280;61921;53.226;-1.296;2022-07-23T08:47:03;100719.36;;;22.17;58.69
73624;BME280;61921;53.226;-1.296;2022-07-23T08:49:29;100717.49;;;22.29;58.26
73624;BME280;61921;53.226;-1.296;2022-07-23T08:51:55;100719.14;;;22.31;58.05
73624;BME280;61921;53.226;-1.296;2022-07-23T08:54:20;100719.56;;;22.32;57.65
73624;BME280;61921;53.226;-1.296;2022-07-23T08:56:45;100719.29;;;22.37;57.88
73624;BME280;61921;53.226;-1.296;2022-07-23T08:59:10;100720.50;;;22.65;57.26
73624;BME280;61921;53.226;-1.296;2022-07-23T09:01:35;100723.85;;;23.00;57.37
73624;BME280;61921;53.226;-1.296;2022-07-23T09:04:01;100729.20;;;23.06;56.04
73624;BME280;61921;53.226;-1.296;2022-07-23T09:06:26;100724.60;;;22.59;57.52
73624;BME280;61921;53.226;-1.296;2022-07-23T09:08:52;100718.86;;;22.46;56.62
73624;BME280;61921;53.226;-1.296;2022-07-23T09:11:18;100719.54;;;22.26;57.51
73624;BME280;61921;53.226;-1.296;2022-07-23T09:13:47;100726.20;;;21.98;58.43
73624;BME280;61921;53.226;-1.296;2022-07-23T09:16:10;100726.53;;;21.76;59.31
73624;BME280;61921;53.226;-1.296;2022-07-23T09:18:38;100730.63;;;21.63;58.36
73624;BME280;61921;53.226;-1.296;2022-07-23T09:21:08;100729.73;;;21.68;57.86
73624;BME280;61921;53.226;-1.296;2022-07-23T09:25:50;100725.61;;;21.56;58.57
73624;BME280;61921;53.226;-1.296;2022-07-23T09:28:15;100723.09;;;21.71;57.23
73624;BME280;61921;53.226;-1.296;2022-07-23T09:30:41;100726.85;;;21.81;56.94
73624;BME280;61921;53.226;-1.296;2022-07-23T09:33:08;100724.96;;;21.83;57.03
73624;BME280;61921;53.226;-1.296;2022-07-23T09:35:44;100720.82;;;21.81;57.29
73624;BME280;61921;53.226;-1.296;2022-07-23T09:38:01;100722.15;;;21.75;58.27
73624;BME280;61921;53.226;-1.296;2022-07-23T09:40:23;100731.71;;;21.86;57.71
73624;BME280;61921;53.226;-1.296;2022-07-23T09:42:54;100731.09;;;21.91;57.87
73624;BME280;61921;53.226;-1.296;2022-07-23T09:45:14;100730.26;;;22.02;58.09
73624;BME280;61921;53.226;-1.296;2022-07-23T09:47:39;100721.11;;;21.82;57.67
73624;BME280;61921;53.226;-1.296;2022-07-23T09:50:07;100722.55;;;22.11;57.78
73624;BME280;61921;53.226;-1.296;2022-07-23T09:52:35;100724.24;;;22.23;57.53
73624;BME280;61921;53.226;-1.296;2022-07-23T09:55:00;100733.28;;;22.21;57.90
73624;BME280;61921;53.226;-1.296;2022-07-23T09:57:21;100730.60;;;22.14;57.65
73624;BME280;61921;53.226;-1.296;2022-07-23T09:59:47;100732.32;;;21.79;57.47
73624;BME280;61921;53.226;-1.296;2022-07-23T10:02:13;100731.56;;;21.63;58.34
73624;BME280;61921;53.226;-1.296;2022-07-23T10:04:39;100725.32;;;21.94;57.26
73624;BME280;61921;53.226;-1.296;2022-07-23T10:07:07;100724.42;;;22.45;56.41
73624;BME280;61921;53.226;-1.296;2022-07-23T10:09:32;100721.02;;;22.65;55.87
73624;BME280;61921;53.226;-1.296;2022-07-23T10:11:59;100725.15;;;22.59;55.29
73624;BME280;61921;53.226;-1.296;2022-07-23T10:14:21;100718.24;;;22.84;55.32
73624;BME280;61921;53.226;-1.296;2022-07-23T10:16:47;100710.14;;;22.95;54.05
73624;BME280;61921;53.226;-1.296;2022-07-23T10:19:12;100711.17;;;23.22;53.58
73624;BME280;61921;53.226;-1.296;2022-07-23T10:21:41;100713.08;;;23.07;53.51
73624;BME280;61921;53.226;-1.296;2022-07-23T10:24:12;100713.01;;;23.45;53.19
73624;BME280;61921;53.226;-1.296;2022-07-23T10:26:35;100715.22;;;23.54;51.20
73624;BME280;61921;53.226;-1.296;2022-07-23T10:29:07;100717.49;;;23.52;53.11
73624;BME280;61921;53.226;-1.296;2022-07-23T10:31:37;100710.06;;;23.68;51.41
73624;BME280;61921;53.226;-1.296;2022-07-23T10:33:53;100710.79;;;23.60;51.95
73624;BME280;61921;53.226;-1.296;2022-07-23T10:36:15;100711.73;;;23.56;51.71
73624;BME280;61921;53.226;-1.296;2022-07-23T10:38:42;100705.17;;;23.31;52.03
73624;BME280;61921;53.226;-1.296;2022-07-23T10:41:02;100703.12;;;23.72;51.98
73624;BME280;61921;53.226;-1.296;2022-07-23T10:43:27;100700.40;;;23.46;52.74
73624;BME280;61921;53.226;-1.296;2022-07-23T10:45:52;100706.05;;;23.59;51.84
73624;BME280;61921;53.226;-1.296;2022-07-23T10:48:17;100703.89;;;23.16;52.11
73624;BME280;61921;53.226;-1.296;2022-07-23T10:50:43;100701.94;;;23.67;51.34
73624;BME280;61921;53.226;-1.296;2022-07-23T10:53:11;100704.59;;;23.50;52.19
73624;BME280;61921;53.226;-1.296;2022-07-23T10:55:41;100698.10;;;23.89;51.58
73624;BME280;61921;53.226;-1.296;2022-07-23T10:57:58;100694.81;;;24.15;50.28
73624;BME280;61921;53.226;-1.296;2022-07-23T11:00:23;100695.20;;;24.48;49.00
73624;BME280;61921;53.226;-1.296;2022-07-23T11:02:49;100694.96;;;24.65;48.91
73624;BME280;61921;53.226;-1.296;2022-07-23T11:05:16;100695.74;;;25.10;47.43
73624;BME280;61921;53.226;-1.296;2022-07-23T11:10:06;100689.99;;;25.12;47.04
73624;BME280;61921;53.226;-1.296;2022-07-23T11:12:34;100693.16;;;25.05;48.50
73624;BME280;61921;53.226;-1.296;2022-07-23T11:14:59;100685.48;;;24.69;47.59
73624;BME280;61921;53.226;-1.296;2022-07-23T11:17:20;100689.38;;;24.53;47.46
73624;BME280;61921;53.226;-1.296;2022-07-23T11:27:03;100681.89;;;24.04;48.99
73624;BME280;61921;53.226;-1.296;2022-07-23T11:29:40;100679.27;;;23.77;49.36
73624;BME280;61921;53.226;-1.296;2022-07-23T11:31:52;100682.34;;;23.39;49.97
73624;BME280;61921;53.226;-1.296;2022-07-23T11:34:31;100684.45;;;23.58;49.94
73624;BME280;61921;53.226;-1.296;2022-07-23T11:36:49;100686.79;;;23.44;49.94
73624;BME280;61921;53.226;-1.296;2022-07-23T11:39:09;100688.00;;;23.46;50.65
73624;BME280;61921;53.226;-1.296;2022-07-23T11:41:43;100688.10;;;23.69;49.23
73624;BME280;61921;53.226;-1.296;2022-07-23T11:43:59;100681.25;;;23.62;49.83
73624;BME280;61921;53.226;-1.296;2022-07-23T11:46:24;100680.59;;;23.82;49.35
73624;BME280;61921;53.226;-1.296;2022-07-23T11:53:39;100680.14;;;23.42;50.45
73624;BME280;61921;53.226;-1.296;2022-07-23T11:56:07;100683.73;;;23.60;49.98
73624;BME280;61921;53.226;-1.296;2022-07-23T11:58:30;100681.28;;;23.16;50.48
73624;BME280;61921;53.226;-1.296;2022-07-23T12:00:55;100678.37;;;23.59;49.66
73624;BME280;61921;53.226;-1.296;2022-07-23T12:03:20;100675.96;;;23.86;48.97
73624;BME280;61921;53.226;-1.296;2022-07-23T12:05:45;100674.68;;;23.79;48.35
73624;BME280;61921;53.226;-1.296;2022-07-23T12:08:10;100673.26;;;23.66;49.27
73624;BME280;61921;53.226;-1.296;2022-07-23T12:10:38;100672.81;;;23.61;48.56
73624;BME280;61921;53.226;-1.296;2022-07-23T12:13:03;100672.58;;;23.50;47.00
73624;BME280;61921;53.226;-1.296;2022-07-23T12:15:29;100672.70;;;23.13;47.45
73624;BME280;61921;53.226;-1.296;2022-07-23T12:17:51;100670.77;;;23.38;46.95
73624;BME280;61921;53.226;-1.296;2022-07-23T12:20:18;100672.84;;;23.39;46.96
73624;BME280;61921;53.226;-1.296;2022-07-23T12:22:42;100677.52;;;23.57;47.07
73624;BME280;61921;53.226;-1.296;2022-07-23T12:25:09;100677.44;;;23.39;46.96
73624;BME280;61921;53.226;-1.296;2022-07-23T12:27:32;100682.23;;;22.94;48.43
73624;BME280;61921;53.226;-1.296;2022-07-23T12:29:58;100681.02;;;22.64;48.80
73624;BME280;61921;53.226;-1.296;2022-07-23T12:32:24;100683.85;;;22.61;49.19
73624;BME280;61921;53.226;-1.296;2022-07-23T12:34:50;100681.66;;;22.94;48.55
73624;BME280;61921;53.226;-1.296;2022-07-23T12:37:26;100683.39;;;22.84;48.22
73624;BME280;61921;53.226;-1.296;2022-07-23T12:39:38;100683.73;;;22.73;49.05
73624;BME280;61921;53.226;-1.296;2022-07-23T12:42:11;100677.07;;;22.98;48.39
73624;BME280;61921;53.226;-1.296;2022-07-23T12:44:29;100679.43;;;22.88;49.31
73624;BME280;61921;53.226;-1.296;2022-07-23T12:46:54;100679.33;;;23.10;48.93
73624;BME280;61921;53.226;-1.296;2022-07-23T12:49:25;100673.72;;;23.47;48.79